Lake City, MN

7:28 AM CDT on October 20, 2014 (GMT -0500)
Rics Igloo7 | Change Station
CLOSE
Current Station
Personal Weather Station
Location: Lake City, MN
Elevation: 733 ft
Nearby Weather Stations

Elev 733 ft 44.47 °N, 92.31 °W | Updated 7 seconds ago

Clear
Clear
43.8 °F
Feels Like 44 °F
N
0.0
Wind Variable Wind from NW
Gusts 2.0 mph

Today
High -- | Low -- °F
--% Chance of Precip.
Yesterday
High -- | Low -- °F
Precip. -- in
7:30 AM 6:16 PM
Waning Crescent, 11% visible
Pressure 29.93 in
Visibility 10.0 miles
Clouds Clear
Windchill 44 °F
Dew Point 41 °F
Humidity 91%
Rainfall 0.00 in
Snow Depth Not available.
UV 0 out of 12
Pollen 1.80 out of 12
Air Quality Not available.
Flu Activity Sporadic
METAR KRGK 201215Z AUTO 28003KT 10SM CLR 06/05 A2993 RMK AO2

More Conditions Fewer Conditions

Pressure 29.93 in
Visibility 10.0 miles
Clouds Clear
Windchill 44 °F
Dew Point 41 °F
Humidity 91%
Rainfall 0.00 in
Snow Depth Not available.
UV 0 out of 12
Pollen 1.80 out of 12
Air Quality Not available.
Flu Activity Sporadic
METAR KRGK 201215Z AUTO 28003KT 10SM CLR 06/05 A2993 RMK AO2

More Conditions Fewer Conditions

10-Day Weather Forecast

Almanac

Astronomy

Oct. 20, 2014 Rise Set
Actual Time 7:30 AM CDT 6:16 PM CDT
Civil Twilight 7:01 AM CDT 6:45 PM CDT
Nautical Twilight 6:27 AM CDT 7:19 PM CDT
Astronomical Twilight 5:53 AM CDT 7:53 PM CDT
Moon 4:12 AM CDT 4:45 PM CDT
Length of Visible Light 11h 44m
Length of Day
10h 45m
Waning Crescent, 11% of the Moon is Illuminated
Today
Waning Crescent
Oct 23
New
Oct 30
First Quarter
Nov 6
Full
Nov 14
Last Quarter

Today's Extremes

State Highs State Lows

Community

WunderPhotos

Upload Photos

1,763,349 photos uploaded!

WunderBlogs® & News

Nearby

Snow Depth

Station Depth Elevation
No new snow has been reported.

Earthquake Activity

City Distance Mag. Time & Date
No recent earthquake activity has been reported nearby.
Minimum magnitude displayed is 2.5.

Coastal Water Temperatures

Place Temperature
No Stations Reporting

Nearby Weather Stations